Terminal Aerodrome Forecast
Issued by NWS

Home | Current Version | Previous Version | Text Only | Print | Product List | Glossary On
Versions: 1 2 3 4 5 6 7 8 9 10 11 12 13
000
FTUS45 KTFX 282329
TAFHVR
TAF
KHVR 282329Z 2900/2924 05006KT P6SM SCT150
     FM290300 10006KT P6SM SCT100 BKN150
     FM291500 21006KT P6SM SCT150
     FM291900 VRB06KT P6SM SCT060 SCT150=

USA.gov is the U.S. government's official web portal to all federal, state and local government web resources and services.